sensor_id;sensor_type;location;lat;lon;timestamp;pressure;altitude;pressure_sealevel;temperature;humidity
49055;BME280;35405;52.344;14.530;2023-12-20T00:02:19;100308.28;;;7.12;87.24
49055;BME280;35405;52.344;14.530;2023-12-20T00:04:45;100309.13;;;7.14;86.98
49055;BME280;35405;52.344;14.530;2023-12-20T00:07:10;100303.97;;;7.08;87.30
49055;BME280;35405;52.344;14.530;2023-12-20T00:09:35;100295.50;;;6.91;87.16
49055;BME280;35405;52.344;14.530;2023-12-20T00:12:00;100307.63;;;6.89;88.03
49055;BME280;35405;52.344;14.530;2023-12-20T00:14:25;100295.50;;;6.91;87.36
49055;BME280;35405;52.344;14.530;2023-12-20T00:16:51;100298.00;;;6.97;87.88
49055;BME280;35405;52.344;14.530;2023-12-20T00:19:16;100289.44;;;6.89;87.93
49055;BME280;35405;52.344;14.530;2023-12-20T00:21:41;100298.94;;;6.93;87.83
49055;BME280;35405;52.344;14.530;2023-12-20T00:24:07;100286.00;;;6.87;87.40
49055;BME280;35405;52.344;14.530;2023-12-20T00:26:35;100288.56;;;6.90;87.57
49055;BME280;35405;52.344;14.530;2023-12-20T00:29:00;100286.81;;;6.92;88.21
49055;BME280;35405;52.344;14.530;2023-12-20T00:31:25;100290.28;;;6.89;87.37
49055;BME280;35405;52.344;14.530;2023-12-20T00:33:51;100285.97;;;6.88;87.67
49055;BME280;35405;52.344;14.530;2023-12-20T00:36:16;100293.75;;;6.90;87.91
49055;BME280;35405;52.344;14.530;2023-12-20T00:38:41;100291.09;;;6.98;87.69
49055;BME280;35405;52.344;14.530;2023-12-20T00:41:06;100287.59;;;7.00;87.95
49055;BME280;35405;52.344;14.530;2023-12-20T00:43:31;100283.28;;;6.99;87.41
49055;BME280;35405;52.344;14.530;2023-12-20T00:45:57;100286.81;;;6.91;87.88
49055;BME280;35405;52.344;14.530;2023-12-20T00:48:22;100283.22;;;7.02;87.64
49055;BME280;35405;52.344;14.530;2023-12-20T00:50:47;100282.41;;;6.99;87.43
49055;BME280;35405;52.344;14.530;2023-12-20T00:53:13;100278.16;;;6.90;87.98
49055;BME280;35405;52.344;14.530;2023-12-20T00:55:38;100281.63;;;6.92;87.76
49055;BME280;35405;52.344;14.530;2023-12-20T00:58:03;100280.69;;;6.99;87.80
49055;BME280;35405;52.344;14.530;2023-12-20T01:00:28;100269.38;;;7.00;87.55
49055;BME280;35405;52.344;14.530;2023-12-20T01:02:53;100272.88;;;6.96;87.99
49055;BME280;35405;52.344;14.530;2023-12-20T01:05:19;100258.19;;;6.94;87.49
49055;BME280;35405;52.344;14.530;2023-12-20T01:07:44;100266.03;;;6.89;87.86
49055;BME280;35405;52.344;14.530;2023-12-20T01:10:09;100269.47;;;6.94;88.09
49055;BME280;35405;52.344;14.530;2023-12-20T01:12:35;100274.66;;;6.94;88.39
49055;BME280;35405;52.344;14.530;2023-12-20T01:15:01;100276.44;;;6.89;87.66
49055;BME280;35405;52.344;14.530;2023-12-20T01:17:26;100279.84;;;6.96;87.91
49055;BME280;35405;52.344;14.530;2023-12-20T01:19:51;100271.16;;;6.98;87.71
49055;BME280;35405;52.344;14.530;2023-12-20T01:22:16;100269.41;;;6.97;87.54
49055;BME280;35405;52.344;14.530;2023-12-20T01:24:42;100269.34;;;7.03;87.99
49055;BME280;35405;52.344;14.530;2023-12-20T01:27:07;100272.88;;;6.99;87.71
49055;BME280;35405;52.344;14.530;2023-12-20T01:29:32;100270.25;;;7.01;87.67
49055;BME280;35405;52.344;14.530;2023-12-20T01:31:57;100262.47;;;6.99;88.33
49055;BME280;35405;52.344;14.530;2023-12-20T01:34:23;100264.31;;;6.91;88.00
49055;BME280;35405;52.344;14.530;2023-12-20T01:36:48;100259.16;;;6.85;87.89
49055;BME280;35405;52.344;14.530;2023-12-20T01:39:13;100259.16;;;6.82;88.14
49055;BME280;35405;52.344;14.530;2023-12-20T01:41:38;100251.34;;;6.83;88.42
49055;BME280;35405;52.344;14.530;2023-12-20T01:44:04;100249.72;;;6.73;88.08
49055;BME280;35405;52.344;14.530;2023-12-20T01:46:29;100247.97;;;6.77;88.27
49055;BME280;35405;52.344;14.530;2023-12-20T01:48:54;100241.00;;;6.80;88.12
49055;BME280;35405;52.344;14.530;2023-12-20T01:51:20;100238.38;;;6.82;88.93
49055;BME280;35405;52.344;14.530;2023-12-20T01:53:45;100240.94;;;6.86;88.26
49055;BME280;35405;52.344;14.530;2023-12-20T01:56:11;100248.72;;;6.88;88.44
49055;BME280;35405;52.344;14.530;2023-12-20T01:58:38;100244.38;;;6.87;88.16
49055;BME280;35405;52.344;14.530;2023-12-20T02:01:05;100247.91;;;6.81;88.19
49055;BME280;35405;52.344;14.530;2023-12-20T02:03:31;100247.06;;;6.81;88.14
49055;BME280;35405;52.344;14.530;2023-12-20T02:05:56;100232.34;;;6.80;88.75
49055;BME280;35405;52.344;14.530;2023-12-20T02:08:21;100229.69;;;6.84;88.87
49055;BME280;35405;52.344;14.530;2023-12-20T02:10:46;100234.81;;;6.89;88.72
49055;BME280;35405;52.344;14.530;2023-12-20T02:13:12;100236.47;;;6.99;88.96
49055;BME280;35405;52.344;14.530;2023-12-20T02:15:37;100230.41;;;6.96;89.09
49055;BME280;35405;52.344;14.530;2023-12-20T02:18:03;100227.78;;;6.97;89.38
49055;BME280;35405;52.344;14.530;2023-12-20T02:20:28;100225.13;;;7.05;89.04
49055;BME280;35405;52.344;14.530;2023-12-20T02:22:53;100223.38;;;7.04;89.26
49055;BME280;35405;52.344;14.530;2023-12-20T02:25:18;100238.97;;;7.07;88.89
49055;BME280;35405;52.344;14.530;2023-12-20T02:27:44;100229.50;;;7.01;88.77
49055;BME280;35405;52.344;14.530;2023-12-20T02:30:09;100227.00;;;6.91;88.76
49055;BME280;35405;52.344;14.530;2023-12-20T02:32:35;100232.19;;;6.94;88.79
49055;BME280;35405;52.344;14.530;2023-12-20T02:35:00;100228.69;;;6.95;88.72
49055;BME280;35405;52.344;14.530;2023-12-20T02:37:25;100219.16;;;6.95;89.41
49055;BME280;35405;52.344;14.530;2023-12-20T02:39:50;100228.72;;;6.93;88.92
49055;BME280;35405;52.344;14.530;2023-12-20T02:42:15;100220.03;;;6.94;89.34
49055;BME280;35405;52.344;14.530;2023-12-20T02:44:41;100220.00;;;6.96;89.36
49055;BME280;35405;52.344;14.530;2023-12-20T02:47:06;100216.53;;;6.98;89.36
49055;BME280;35405;52.344;14.530;2023-12-20T02:49:31;100222.63;;;6.94;89.21
49055;BME280;35405;52.344;14.530;2023-12-20T02:51:56;100213.06;;;6.96;89.38
49055;BME280;35405;52.344;14.530;2023-12-20T02:54:21;100220.81;;;7.02;89.11
49055;BME280;35405;52.344;14.530;2023-12-20T02:56:47;100218.22;;;7.02;89.65
49055;BME280;35405;52.344;14.530;2023-12-20T02:59:12;100219.03;;;7.04;89.77
49055;BME280;35405;52.344;14.530;2023-12-20T03:01:41;100210.47;;;6.99;89.44
49055;BME280;35405;52.344;14.530;2023-12-20T03:04:06;100213.00;;;7.02;88.90
49055;BME280;35405;52.344;14.530;2023-12-20T03:06:32;100215.66;;;6.99;88.79
49055;BME280;35405;52.344;14.530;2023-12-20T03:08:57;100207.88;;;6.98;88.85
49055;BME280;35405;52.344;14.530;2023-12-20T03:11:26;100210.28;;;7.11;89.48
49055;BME280;35405;52.344;14.530;2023-12-20T03:13:51;100211.13;;;7.15;89.29
49055;BME280;35405;52.344;14.530;2023-12-20T03:16:16;100206.03;;;7.04;89.41
49055;BME280;35405;52.344;14.530;2023-12-20T03:18:41;100206.00;;;7.09;89.88
49055;BME280;35405;52.344;14.530;2023-12-20T03:21:06;100209.50;;;7.06;89.90
49055;BME280;35405;52.344;14.530;2023-12-20T03:23:32;100223.34;;;7.08;89.82
49055;BME280;35405;52.344;14.530;2023-12-20T03:26:00;100213.91;;;7.00;89.72
49055;BME280;35405;52.344;14.530;2023-12-20T03:28:29;100218.31;;;6.93;89.51
49055;BME280;35405;52.344;14.530;2023-12-20T03:30:54;100217.53;;;6.86;89.84
49055;BME280;35405;52.344;14.530;2023-12-20T03:33:19;100212.34;;;6.83;89.62
49055;BME280;35405;52.344;14.530;2023-12-20T03:35:45;100208.81;;;6.89;90.03
49055;BME280;35405;52.344;14.530;2023-12-20T03:38:10;100224.41;;;6.89;89.76
49055;BME280;35405;52.344;14.530;2023-12-20T03:40:35;100232.28;;;6.84;89.37
49055;BME280;35405;52.344;14.530;2023-12-20T03:43:01;100233.16;;;6.82;89.49
49055;BME280;35405;52.344;14.530;2023-12-20T03:45:26;100231.38;;;6.87;89.48
49055;BME280;35405;52.344;14.530;2023-12-20T03:47:51;100227.91;;;6.91;89.38
49055;BME280;35405;52.344;14.530;2023-12-20T03:50:24;100226.94;;;6.98;89.78
49055;BME280;35405;52.344;14.530;2023-12-20T03:52:49;100229.50;;;7.01;89.82
49055;BME280;35405;52.344;14.530;2023-12-20T03:55:15;100237.31;;;7.00;89.23
49055;BME280;35405;52.344;14.530;2023-12-20T03:57:40;100232.91;;;7.06;89.96
49055;BME280;35405;52.344;14.530;2023-12-20T04:00:06;100234.66;;;7.04;89.28
49055;BME280;35405;52.344;14.530;2023-12-20T04:02:35;100227.63;;;7.14;89.35
49055;BME280;35405;52.344;14.530;2023-12-20T04:05:00;100227.59;;;7.15;89.25
49055;BME280;35405;52.344;14.530;2023-12-20T04:07:25;100231.06;;;7.14;89.18
49055;BME280;35405;52.344;14.530;2023-12-20T04:09:51;100234.44;;;7.23;89.71
49055;BME280;35405;52.344;14.530;2023-12-20T04:12:16;100227.38;;;7.32;89.32
49055;BME280;35405;52.344;14.530;2023-12-20T04:14:41;100227.38;;;7.34;89.27
49055;BME280;35405;52.344;14.530;2023-12-20T04:17:06;100236.88;;;7.36;89.52
49055;BME280;35405;52.344;14.530;2023-12-20T04:19:31;100232.53;;;7.37;89.57
49055;BME280;35405;52.344;14.530;2023-12-20T04:21:57;100222.00;;;7.44;90.09
49055;BME280;35405;52.344;14.530;2023-12-20T04:24:22;100229.75;;;7.51;89.24
49055;BME280;35405;52.344;14.530;2023-12-20T04:26:47;100227.03;;;7.58;89.79
49055;BME280;35405;52.344;14.530;2023-12-20T04:29:12;100215.03;;;7.48;88.84
49055;BME280;35405;52.344;14.530;2023-12-20T04:31:38;100219.38;;;7.46;89.03
49055;BME280;35405;52.344;14.530;2023-12-20T04:34:03;100226.22;;;7.55;89.57
49055;BME280;35405;52.344;14.530;2023-12-20T04:36:28;100221.81;;;7.61;89.03
49055;BME280;35405;52.344;14.530;2023-12-20T04:38:55;100222.72;;;7.57;89.55
49055;BME280;35405;52.344;14.530;2023-12-20T04:41:20;100228.81;;;7.53;89.09
49055;BME280;35405;52.344;14.530;2023-12-20T04:43:45;100219.34;;;7.51;89.23
49055;BME280;35405;52.344;14.530;2023-12-20T04:46:10;100218.44;;;7.52;89.76
49055;BME280;35405;52.344;14.530;2023-12-20T04:48:36;100227.09;;;7.55;89.78
49055;BME280;35405;52.344;14.530;2023-12-20T04:51:01;100216.69;;;7.55;89.98
49055;BME280;35405;52.344;14.530;2023-12-20T04:53:26;100211.56;;;7.49;89.66
49055;BME280;35405;52.344;14.530;2023-12-20T04:55:52;100207.22;;;7.48;90.13
49055;BME280;35405;52.344;14.530;2023-12-20T04:58:17;100213.22;;;7.53;89.80
49055;BME280;35405;52.344;14.530;2023-12-20T05:00:42;100217.50;;;7.57;89.73
49055;BME280;35405;52.344;14.530;2023-12-20T05:03:08;100206.38;;;7.46;89.85
49055;BME280;35405;52.344;14.530;2023-12-20T05:05:34;100214.16;;;7.49;89.79
49055;BME280;35405;52.344;14.530;2023-12-20T05:07:59;100208.97;;;7.46;89.91
49055;BME280;35405;52.344;14.530;2023-12-20T05:10:24;100200.34;;;7.44;89.82
49055;BME280;35405;52.344;14.530;2023-12-20T05:12:49;100199.44;;;7.45;90.00
49055;BME280;35405;52.344;14.530;2023-12-20T05:15:15;100201.28;;;7.38;89.53
49055;BME280;35405;52.344;14.530;2023-12-20T05:17:40;100202.25;;;7.30;89.54
49055;BME280;35405;52.344;14.530;2023-12-20T05:20:06;100197.19;;;7.21;89.05
49055;BME280;35405;52.344;14.530;2023-12-20T05:22:31;100198.94;;;7.17;89.74
49055;BME280;35405;52.344;14.530;2023-12-20T05:24:56;100195.56;;;7.10;88.72
49055;BME280;35405;52.344;14.530;2023-12-20T05:27:21;100195.63;;;7.07;88.94
49055;BME280;35405;52.344;14.530;2023-12-20T05:29:47;100194.72;;;7.08;89.02
49055;BME280;35405;52.344;14.530;2023-12-20T05:32:12;100195.63;;;7.06;88.85
49055;BME280;35405;52.344;14.530;2023-12-20T05:34:37;100196.47;;;7.08;88.65
49055;BME280;35405;52.344;14.530;2023-12-20T05:37:02;100192.19;;;7.02;88.56
49055;BME280;35405;52.344;14.530;2023-12-20T05:39:28;100191.44;;;6.94;88.78
49055;BME280;35405;52.344;14.530;2023-12-20T05:41:53;100186.34;;;6.83;88.02
49055;BME280;35405;52.344;14.530;2023-12-20T05:44:18;100194.28;;;6.73;88.27
49055;BME280;35405;52.344;14.530;2023-12-20T05:46:44;100192.63;;;6.66;87.85
49055;BME280;35405;52.344;14.530;2023-12-20T05:49:09;100197.88;;;6.61;88.58
49055;BME280;35405;52.344;14.530;2023-12-20T05:51:35;100192.69;;;6.63;88.33
49055;BME280;35405;52.344;14.530;2023-12-20T05:54:01;100192.63;;;6.66;89.39
49055;BME280;35405;52.344;14.530;2023-12-20T05:56:26;100199.53;;;6.68;89.06
49055;BME280;35405;52.344;14.530;2023-12-20T05:58:51;100196.88;;;6.73;89.50
49055;BME280;35405;52.344;14.530;2023-12-20T06:01:16;100209.88;;;6.73;89.29
49055;BME280;35405;52.344;14.530;2023-12-20T06:03:44;100215.91;;;6.75;89.03
49055;BME280;35405;52.344;14.530;2023-12-20T06:06:11;100211.56;;;6.75;89.10
49055;BME280;35405;52.344;14.530;2023-12-20T06:08:36;100205.50;;;6.75;88.88
49055;BME280;35405;52.344;14.530;2023-12-20T06:11:01;100210.72;;;6.75;89.36
49055;BME280;35405;52.344;14.530;2023-12-20T06:13:26;100211.47;;;6.86;89.90
49055;BME280;35405;52.344;14.530;2023-12-20T06:15:52;100210.63;;;6.82;89.69
49055;BME280;35405;52.344;14.530;2023-12-20T06:18:17;100210.63;;;6.85;89.68
49055;BME280;35405;52.344;14.530;2023-12-20T06:20:42;100213.03;;;7.01;90.26
49055;BME280;35405;52.344;14.530;2023-12-20T06:23:07;100212.19;;;6.97;89.65
49055;BME280;35405;52.344;14.530;2023-12-20T06:25:33;100205.47;;;6.79;89.19
49055;BME280;35405;52.344;14.530;2023-12-20T06:27:58;100208.00;;;6.87;89.63
49055;BME280;35405;52.344;14.530;2023-12-20T06:30:23;100204.44;;;6.94;90.23
49055;BME280;35405;52.344;14.530;2023-12-20T06:32:49;100204.47;;;6.93;90.03
49055;BME280;35405;52.344;14.530;2023-12-20T06:35:15;100202.66;;;6.96;89.93
49055;BME280;35405;52.344;14.530;2023-12-20T06:37:40;100212.34;;;6.85;90.31
49055;BME280;35405;52.344;14.530;2023-12-20T06:40:12;100210.63;;;6.84;89.14
49055;BME280;35405;52.344;14.530;2023-12-20T06:42:37;100212.66;;;6.54;88.35
49055;BME280;35405;52.344;14.530;2023-12-20T06:45:02;100202.47;;;6.36;88.46
49055;BME280;35405;52.344;14.530;2023-12-20T06:47:28;100199.97;;;6.24;88.50
49055;BME280;35405;52.344;14.530;2023-12-20T06:49:53;100202.72;;;6.07;88.74
49055;BME280;35405;52.344;14.530;2023-12-20T06:52:18;100215.69;;;6.05;88.72
49055;BME280;35405;52.344;14.530;2023-12-20T06:54:43;100216.59;;;6.01;88.70
49055;BME280;35405;52.344;14.530;2023-12-20T06:57:09;100224.44;;;5.95;88.48
49055;BME280;35405;52.344;14.530;2023-12-20T06:59:37;100210.59;;;5.89;88.71
49055;BME280;35405;52.344;14.530;2023-12-20T07:02:03;100212.34;;;5.88;88.96
49055;BME280;35405;52.344;14.530;2023-12-20T07:04:28;100223.59;;;5.84;88.60
49055;BME280;35405;52.344;14.530;2023-12-20T07:06:53;100229.69;;;5.82;89.15
49055;BME280;35405;52.344;14.530;2023-12-20T07:09:22;100233.13;;;5.87;89.28
49055;BME280;35405;52.344;14.530;2023-12-20T07:11:47;100228.84;;;5.81;88.93
49055;BME280;35405;52.344;14.530;2023-12-20T07:14:12;100231.41;;;5.86;89.14
49055;BME280;35405;52.344;14.530;2023-12-20T07:16:37;100228.78;;;5.87;88.50
49055;BME280;35405;52.344;14.530;2023-12-20T07:19:03;100227.91;;;5.90;89.28
49055;BME280;35405;52.344;14.530;2023-12-20T07:21:28;100231.38;;;5.92;89.28
49055;BME280;35405;52.344;14.530;2023-12-20T07:23:53;100233.09;;;5.88;88.66
49055;BME280;35405;52.344;14.530;2023-12-20T07:26:19;100227.88;;;5.96;89.57
49055;BME280;35405;52.344;14.530;2023-12-20T07:28:44;100227.03;;;5.95;88.88
49055;BME280;35405;52.344;14.530;2023-12-20T07:31:09;100227.91;;;5.94;89.75
49055;BME280;35405;52.344;14.530;2023-12-20T07:33:35;100224.34;;;6.04;90.00
49055;BME280;35405;52.344;14.530;2023-12-20T07:36:00;100233.81;;;6.15;89.60
49055;BME280;35405;52.344;14.530;2023-12-20T07:38:26;100219.91;;;6.22;89.18
49055;BME280;35405;52.344;14.530;2023-12-20T07:40:51;100218.19;;;6.19;89.39
49055;BME280;35405;52.344;14.530;2023-12-20T07:43:16;100223.31;;;6.25;90.02
49055;BME280;35405;52.344;14.530;2023-12-20T07:45:41;100219.03;;;6.20;89.63
49055;BME280;35405;52.344;14.530;2023-12-20T07:48:06;100212.03;;;6.31;90.19
49055;BME280;35405;52.344;14.530;2023-12-20T07:50:32;100207.59;;;6.41;89.54
49055;BME280;35405;52.344;14.530;2023-12-20T07:52:57;100207.59;;;6.42;89.96
49055;BME280;35405;52.344;14.530;2023-12-20T07:55:24;100204.94;;;6.47;90.25
49055;BME280;35405;52.344;14.530;2023-12-20T07:57:49;100212.66;;;6.57;89.58
49055;BME280;35405;52.344;14.530;2023-12-20T08:00:15;100211.75;;;6.58;90.11
49055;BME280;35405;52.344;14.530;2023-12-20T08:02:40;100209.94;;;6.67;90.25
49055;BME280;35405;52.344;14.530;2023-12-20T08:05:05;100210.69;;;6.76;90.70
49055;BME280;35405;52.344;14.530;2023-12-20T08:07:31;100209.59;;;6.99;90.27
49055;BME280;35405;52.344;14.530;2023-12-20T08:09:56;100225.13;;;7.03;90.77
49055;BME280;35405;52.344;14.530;2023-12-20T08:12:22;100223.47;;;6.96;89.75
49055;BME280;35405;52.344;14.530;2023-12-20T08:14:47;100221.78;;;6.94;89.95
49055;BME280;35405;52.344;14.530;2023-12-20T08:17:12;100222.69;;;6.89;90.16
49055;BME280;35405;52.344;14.530;2023-12-20T08:19:38;100228.13;;;6.70;90.73
49055;BME280;35405;52.344;14.530;2023-12-20T08:22:03;100225.44;;;6.76;90.32
49055;BME280;35405;52.344;14.530;2023-12-20T08:24:29;100220.97;;;6.88;90.48
49055;BME280;35405;52.344;14.530;2023-12-20T08:26:54;100214.09;;;6.83;90.24
49055;BME280;35405;52.344;14.530;2023-12-20T08:29:20;100210.63;;;6.85;90.16
49055;BME280;35405;52.344;14.530;2023-12-20T08:31:46;100209.69;;;6.88;90.22
49055;BME280;35405;52.344;14.530;2023-12-20T08:34:11;100201.91;;;6.88;90.09
49055;BME280;35405;52.344;14.530;2023-12-20T08:36:41;100188.06;;;6.86;90.36
49055;BME280;35405;52.344;14.530;2023-12-20T08:39:07;100196.78;;;6.82;90.13
49055;BME280;35405;52.344;14.530;2023-12-20T08:41:33;100203.72;;;6.81;90.13
49055;BME280;35405;52.344;14.530;2023-12-20T08:44:00;100191.47;;;6.89;90.39
49055;BME280;35405;52.344;14.530;2023-12-20T08:46:26;100191.50;;;6.88;90.47
49055;BME280;35405;52.344;14.530;2023-12-20T08:48:51;100187.25;;;6.81;90.39
49055;BME280;35405;52.344;14.530;2023-12-20T08:51:16;100196.78;;;6.82;90.13
49055;BME280;35405;52.344;14.530;2023-12-20T08:53:41;100183.78;;;6.80;90.87
49055;BME280;35405;52.344;14.530;2023-12-20T08:56:06;100185.50;;;6.81;90.10
49055;BME280;35405;52.344;14.530;2023-12-20T08:58:32;100186.41;;;6.80;90.07
49055;BME280;35405;52.344;14.530;2023-12-20T09:00:58;100188.09;;;6.83;90.15
49055;BME280;35405;52.344;14.530;2023-12-20T09:03:23;100187.22;;;6.82;89.85
49055;BME280;35405;52.344;14.530;2023-12-20T09:05:49;100190.72;;;6.81;90.28
49055;BME280;35405;52.344;14.530;2023-12-20T09:08:14;100186.34;;;6.85;90.05
49055;BME280;35405;52.344;14.530;2023-12-20T09:10:39;100202.72;;;6.93;90.10
49055;BME280;35405;52.344;14.530;2023-12-20T09:13:08;100194.16;;;6.85;90.44
49055;BME280;35405;52.344;14.530;2023-12-20T09:15:33;100194.09;;;6.91;89.65
49055;BME280;35405;52.344;14.530;2023-12-20T09:17:59;100199.28;;;6.89;89.60
49055;BME280;35405;52.344;14.530;2023-12-20T09:20:24;100191.63;;;6.76;89.32
49055;BME280;35405;52.344;14.530;2023-12-20T09:22:49;100206.50;;;6.65;89.44
49055;BME280;35405;52.344;14.530;2023-12-20T09:25:14;100189.25;;;6.57;89.46
49055;BME280;35405;52.344;14.530;2023-12-20T09:27:41;100192.81;;;6.49;89.70
49055;BME280;35405;52.344;14.530;2023-12-20T09:30:06;100196.94;;;6.67;90.16
49055;BME280;35405;52.344;14.530;2023-12-20T09:32:32;100187.44;;;6.64;89.20
49055;BME280;35405;52.344;14.530;2023-12-20T09:34:57;100176.97;;;6.72;90.14
49055;BME280;35405;52.344;14.530;2023-12-20T09:37:23;100174.25;;;6.81;89.39
49055;BME280;35405;52.344;14.530;2023-12-20T09:39:48;100174.13;;;6.90;89.86
49055;BME280;35405;52.344;14.530;2023-12-20T09:42:14;100166.16;;;7.05;89.78
49055;BME280;35405;52.344;14.530;2023-12-20T09:44:42;100165.28;;;7.06;89.04
49055;BME280;35405;52.344;14.530;2023-12-20T09:47:09;100138.38;;;7.07;88.33
49055;BME280;35405;52.344;14.530;2023-12-20T09:49:34;100151.47;;;7.01;88.50
49055;BME280;35405;52.344;14.530;2023-12-20T09:52:00;100142.63;;;7.14;88.81
49055;BME280;35405;52.344;14.530;2023-12-20T09:54:25;100139.19;;;7.12;87.35
49055;BME280;35405;52.344;14.530;2023-12-20T09:56:51;100125.41;;;7.04;86.69
49055;BME280;35405;52.344;14.530;2023-12-20T09:59:17;100132.34;;;7.05;87.52
49055;BME280;35405;52.344;14.530;2023-12-20T10:01:42;100145.19;;;7.18;87.28
49055;BME280;35405;52.344;14.530;2023-12-20T10:04:08;100144.09;;;7.32;86.91
49055;BME280;35405;52.344;14.530;2023-12-20T10:06:36;100148.41;;;7.35;86.85
49055;BME280;35405;52.344;14.530;2023-12-20T10:09:01;100139.84;;;7.28;86.18
49055;BME280;35405;52.344;14.530;2023-12-20T10:11:26;100137.22;;;7.30;85.80
49055;BME280;35405;52.344;14.530;2023-12-20T10:13:53;100127.59;;;7.35;84.77
49055;BME280;35405;52.344;14.530;2023-12-20T10:16:24;100130.41;;;7.21;82.96
49055;BME280;35405;52.344;14.530;2023-12-20T10:18:50;100120.13;;;7.10;83.05
49055;BME280;35405;52.344;14.530;2023-12-20T10:21:15;100126.97;;;7.18;84.18
49055;BME280;35405;52.344;14.530;2023-12-20T10:23:40;100121.72;;;7.21;83.05
49055;BME280;35405;52.344;14.530;2023-12-20T10:26:05;100119.75;;;7.38;84.89
49055;BME280;35405;52.344;14.530;2023-12-20T10:28:34;100121.44;;;7.39;83.48
49055;BME280;35405;52.344;14.530;2023-12-20T10:30:59;100107.75;;;7.28;82.38
49055;BME280;35405;52.344;14.530;2023-12-20T10:33:24;100095.31;;;7.48;85.13
49055;BME280;35405;52.344;14.530;2023-12-20T10:35:50;100099.69;;;7.44;83.75
49055;BME280;35405;52.344;14.530;2023-12-20T10:38:16;100078.97;;;7.37;84.27
49055;BME280;35405;52.344;14.530;2023-12-20T10:40:41;100103.47;;;7.24;83.74
49055;BME280;35405;52.344;14.530;2023-12-20T10:43:08;100089.81;;;7.08;82.90
49055;BME280;35405;52.344;14.530;2023-12-20T10:45:33;100082.88;;;7.08;83.86
49055;BME280;35405;52.344;14.530;2023-12-20T10:47:59;100065.50;;;7.10;83.73
49055;BME280;35405;52.344;14.530;2023-12-20T10:50:24;100079.53;;;7.00;83.67
49055;BME280;35405;52.344;14.530;2023-12-20T10:52:51;100063.03;;;7.01;82.73
49055;BME280;35405;52.344;14.530;2023-12-20T10:55:20;100059.41;;;7.11;84.20
49055;BME280;35405;52.344;14.530;2023-12-20T10:57:45;100077.41;;;7.27;83.91
49055;BME280;35405;52.344;14.530;2023-12-20T11:00:15;100082.63;;;7.25;82.53
49055;BME280;35405;52.344;14.530;2023-12-20T11:02:42;100074.03;;;7.19;81.70
49055;BME280;35405;52.344;14.530;2023-12-20T11:07:44;100067.91;;;7.24;81.88
49055;BME280;35405;52.344;14.530;2023-12-20T11:10:20;100045.34;;;7.25;81.40
49055;BME280;35405;52.344;14.530;2023-12-20T11:12:50;100061.78;;;7.28;81.74
49055;BME280;35405;52.344;14.530;2023-12-20T11:15:17;100052.25;;;7.26;80.45
49055;BME280;35405;52.344;14.530;2023-12-20T11:17:44;100044.22;;;7.42;81.39
49055;BME280;35405;52.344;14.530;2023-12-20T11:20:09;100044.22;;;7.42;82.50
49055;BME280;35405;52.344;14.530;2023-12-20T11:22:36;100038.94;;;7.47;81.85
49055;BME280;35405;52.344;14.530;2023-12-20T11:25:06;100037.94;;;7.53;82.72
49055;BME280;35405;52.344;14.530;2023-12-20T11:27:33;100035.53;;;7.42;81.32
49055;BME280;35405;52.344;14.530;2023-12-20T11:29:58;100020.63;;;7.52;83.19
49055;BME280;35405;52.344;14.530;2023-12-20T11:34:50;100027.69;;;7.43;82.67
49055;BME280;35405;52.344;14.530;2023-12-20T11:37:15;100011.19;;;7.44;81.91
49055;BME280;35405;52.344;14.530;2023-12-20T11:39:40;100007.81;;;7.41;81.62
49055;BME280;35405;52.344;14.530;2023-12-20T11:42:07;100002.59;;;7.39;80.47
49055;BME280;35405;52.344;14.530;2023-12-20T11:44:35;100008.50;;;7.51;81.67
49055;BME280;35405;52.344;14.530;2023-12-20T11:47:01;99999.72;;;7.56;82.45
49055;BME280;35405;52.344;14.530;2023-12-20T11:49:26;100008.44;;;7.55;81.53
49055;BME280;35405;52.344;14.530;2023-12-20T11:51:54;99999.03;;;7.45;80.81
49055;BME280;35405;52.344;14.530;2023-12-20T11:54:19;99997.28;;;7.47;80.86
49055;BME280;35405;52.344;14.530;2023-12-20T11:56:44;99982.44;;;7.52;81.93
49055;BME280;35405;52.344;14.530;2023-12-20T11:59:10;99986.75;;;7.55;81.79
49055;BME280;35405;52.344;14.530;2023-12-20T12:01:36;99977.94;;;7.60;81.46
49055;BME280;35405;52.344;14.530;2023-12-20T12:04:02;99959.69;;;7.63;80.90
49055;BME280;35405;52.344;14.530;2023-12-20T12:06:27;99969.19;;;7.64;80.84
49055;BME280;35405;52.344;14.530;2023-12-20T12:08:52;99966.59;;;7.64;81.74
49055;BME280;35405;52.344;14.530;2023-12-20T12:11:19;99952.84;;;7.58;81.41
49055;BME280;35405;52.344;14.530;2023-12-20T12:13:44;99958.88;;;7.61;81.35
49055;BME280;35405;52.344;14.530;2023-12-20T12:16:09;99951.84;;;7.65;81.86
49055;BME280;35405;52.344;14.530;2023-12-20T12:18:35;99948.94;;;7.80;82.27
49055;BME280;35405;52.344;14.530;2023-12-20T12:21:01;99938.66;;;7.72;82.74
49055;BME280;35405;52.344;14.530;2023-12-20T12:23:27;99939.78;;;7.59;81.44
49055;BME280;35405;52.344;14.530;2023-12-20T12:25:52;99929.34;;;7.61;80.85
49055;BME280;35405;52.344;14.530;2023-12-20T12:28:20;99928.50;;;7.59;80.28
49055;BME280;35405;52.344;14.530;2023-12-20T12:30:57;99916.34;;;7.59;80.15
49055;BME280;35405;52.344;14.530;2023-12-20T12:33:24;99911.91;;;7.66;80.92
49055;BME280;35405;52.344;14.530;2023-12-20T12:35:49;99900.81;;;7.56;80.22
49055;BME280;35405;52.344;14.530;2023-12-20T12:38:14;99892.97;;;7.58;80.13
49055;BME280;35405;52.344;14.530;2023-12-20T12:40:40;99893.94;;;7.52;82.07
49055;BME280;35405;52.344;14.530;2023-12-20T12:43:08;99890.41;;;7.56;82.61
49055;BME280;35405;52.344;14.530;2023-12-20T12:45:33;99888.56;;;7.60;82.22
49055;BME280;35405;52.344;14.530;2023-12-20T12:47:58;99874.81;;;7.55;81.97